Namao — CZ9742 — position and weather

sailwx.info

Track history (hours):
 
Tides and Currents Weather Stations Pressure Air Temp Water Temp Dewpoint Dewpoint Depression Visibility Wind Speed Wind Dir Waves Ship Positions

Oceanographic research ship Namao (Canada)

Last reported at 2019-Feb-16 02:00 UTC. Time now 2019-Feb-16 03:02 UTC.
Position N 50°36' W 096°54'.

Wind from 240 at 5 knots

Barometer 1026.4 mb
Air temperature -17.4 ° C
Dewpoint -21.3 ° C

Date/timePositionNaut miles runAvg speedWind from/ knotsBaromVisibWave heightAir tempDewpointWater temp
2019-Feb-16 02:00N 50°36' W 096°54'0 0.0 240 / 51026.4 -17.4-21.3
2019-Feb-16 01:00N 50°36' W 096°54'0 0.0 190 / 41026.2 -18.5-21.6
2019-Feb-16 00:00N 50°36' W 096°54'0 0.0 180 / 41025.9 -18.2-21.4
2019-Feb-15 23:00N 50°36' W 096°54'0 0.0 180 / 61025.6 -17.4-21.1
2019-Feb-15 22:00N 50°36' W 096°54'0 0.0 150 / 41025.6 -17.0-20.7
2019-Feb-15 21:00N 50°36' W 096°54'0 0.0 100 / 51025.2 -14.4-19.4
2019-Feb-15 20:00N 50°36' W 096°54'0 0.0 060 / 41025.6 -13.8-19.3
2019-Feb-15 19:00N 50°36' W 096°54'0 0.0 030 / 21025.8 -12.3-19.3
2019-Feb-15 18:00N 50°36' W 096°54'0 0.0 100 / 41026.2 -16.1-21.2
2019-Feb-15 17:00N 50°36' W 096°54'0 0.0 290 / 41026.2 -17.7-22.0
2019-Feb-15 16:00N 50°36' W 096°54'0 0.0 290 / 51025.7 -19.9-23.5
2019-Feb-15 15:00N 50°36' W 096°54'0 0.0 290 / 21025.7 -21.9-25.0
2019-Feb-15 14:00N 50°36' W 096°54'0 0.0 300 / 41025.3 -23.2-25.5
2019-Feb-15 13:00N 50°36' W 096°54'0 0.0 250 / 21024.6 -23.3-25.4
2019-Feb-15 12:00N 50°36' W 096°54'0 0.0 290 / 61024.2 -22.2-24.4
2019-Feb-15 11:00N 50°36' W 096°54'0 0.0 300 / 81023.6 -21.4-23.7
2019-Feb-15 10:00N 50°36' W 096°54'0 0.0 290 / 71023.5 -21.1-23.5
2019-Feb-15 09:00N 50°36' W 096°54'0 0.0 300 / 91022.7 -20.2-22.8
2019-Feb-15 08:00N 50°36' W 096°54'0 0.0 310 / 101022.4 -19.6-22.4
2019-Feb-15 07:00N 50°36' W 096°54'0 0.0 300 / 81021.9 -19.3-22.4
2019-Feb-15 06:00N 50°36' W 096°54'0 0.0 310 / 81021.2 -18.8-21.9
2019-Feb-15 05:00N 50°36' W 096°54'0 0.0 300 / 91021.0 -18.8-22.1
2019-Feb-15 04:00N 50°36' W 096°54'0 0.0 290 / 51020.3 -18.2-21.5
2019-Feb-15 03:00N 50°36' W 096°54'0 0.0 320 / 81019.7 -17.3-20.9
2019-Feb-15 02:00N 50°36' W 096°54'0 0.0 320 / 91019.1 -17.1-20.9
2019-Feb-15 01:00N 50°36' W 096°54'0 0.0 320 / 91018.0 -16.0-20.3
2019-Feb-15 00:00N 50°36' W 096°54'0 0.0 300 / 91017.1 -15.4-19.9
2019-Feb-14 23:00N 50°36' W 096°54'0 0.0 300 / 101016.2 -14.3-19.9
2019-Feb-14 22:00N 50°36' W 096°54'0 0.0 310 / 111015.7 -14.1-19.8
2019-Feb-14 21:00N 50°36' W 096°54'0 0.0 310 / 121015.4 -14.7-20.1
2019-Feb-14 20:00N 50°36' W 096°54'0 0.0 300 / 111015.2 -15.2-20.1
2019-Feb-14 19:00N 50°36' W 096°54'0 0.0 310 / 111014.8 -15.9-20.4
2019-Feb-14 18:00N 50°36' W 096°54'0 0.0 310 / 101014.6 -16.3-20.3
2019-Feb-14 17:00N 50°36' W 096°54'0 0.0 300 / 111014.0 -16.7-20.4
2019-Feb-14 16:00N 50°36' W 096°54'0 0.0 310 / 91013.5 -17.4-20.2
2019-Feb-14 15:00N 50°36' W 096°54'0 0.0 300 / 101013.2 -18.7-21.2
2019-Feb-14 14:00N 50°36' W 096°54'0 0.0 290 / 91012.7 -20.0-22.3
2019-Feb-14 13:00N 50°36' W 096°54'0 0.0 310 / 91012.1 -21.1-23.2
2019-Feb-14 12:00N 50°36' W 096°54'0 0.0 300 / 81011.7 -22.0-24.2
2019-Feb-14 11:00N 50°36' W 096°54'0 0.0 300 / 81010.4 -21.3-23.5
2019-Feb-14 10:00N 50°36' W 096°54'0 0.0 310 / 71010.0 -20.9-22.9
2019-Feb-14 09:00N 50°36' W 096°54'0 0.0 310 / 91009.3 -20.0-22.1
2019-Feb-14 08:00N 50°36' W 096°54'0 0.0 310 / 71009.1 -19.4-20.8
2019-Feb-14 07:00N 50°36' W 096°54'0 0.0 330 / 101008.5 -18.1-19.9
2019-Feb-14 06:00N 50°36' W 096°54'0 0.0 340 / 91008.2 -16.8-18.1
2019-Feb-14 05:00N 50°36' W 096°54'0 0.0 320 / 81007.7 -15.1-16.1
2019-Feb-14 04:00N 50°36' W 096°54'0 0.0 310 / 71007.7 -15.0-15.7
2019-Feb-14 03:00N 50°36' W 096°54'0 0.0 330 / 31007.9 -15.2-15.9
2019-Feb-14 02:00N 50°36' W 096°54'0 0.0 320 / 21008.5 -15.4-16.1
2019-Feb-14 01:00N 50°36' W 096°54'0 0.0 340 / 31009.0 -15.6-16.4
2019-Feb-14 00:00N 50°36' W 096°54'0 0.0 060 / 21009.0 -15.5-16.6
2019-Feb-13 23:00N 50°36' W 096°54'0 0.0 080 / 21009.1 -14.8-16.5
2019-Feb-13 22:00N 50°36' W 096°54'0 0.0 170 / 41009.9 -15.7-18.0
2019-Feb-13 21:00N 50°36' W 096°54'0 0.0 180 / 61010.1 -15.8-18.3
2019-Feb-13 20:00N 50°36' W 096°54'0 0.0 190 / 91010.7 -16.0-18.5
2019-Feb-13 19:00N 50°36' W 096°54'0 0.0 190 / 81011.7 -16.1-18.2
2019-Feb-13 18:00N 50°36' W 096°54'0 0.0 200 / 71012.7 -16.0-18.0
2019-Feb-13 17:00N 50°36' W 096°54'0 0.0 190 / 51013.2 -15.8-17.5
2019-Feb-13 16:00N 50°36' W 096°54'0 0.0 190 / 51014.0 -16.1-17.6
2019-Feb-13 15:00N 50°36' W 096°54'0 0.0 180 / 41014.3 -16.2-17.7
2019-Feb-13 14:00N 50°36' W 096°54'0 0.0 200 / 31014.5 -16.1-17.1
2019-Feb-13 13:00N 50°36' W 096°54'0 0.0 230 / 51015.2 -15.1-15.7
2019-Feb-13 12:00N 50°36' W 096°54'0 0.0 200 / 41015.5 -14.7-15.0
2019-Feb-13 11:00N 50°36' W 096°54'0 0.0 230 / 51015.9 -14.5-14.7
2019-Feb-13 10:00N 50°36' W 096°54'0 0.0 230 / 41016.6 -14.4-14.6
2019-Feb-13 09:00N 50°36' W 096°54'0 0.0 250 / 61017.5 -15.0-15.2
2019-Feb-13 08:00N 50°36' W 096°54'0 0.0 240 / 41017.4 -16.2-16.7
2019-Feb-13 07:00N 50°36' W 096°54'0 0.0 250 / 21017.5 -16.2-16.7
2019-Feb-13 06:00N 50°36' W 096°54'0 0.0 260 / 51018.0 -15.0-15.1
2019-Feb-13 05:00N 50°36' W 096°54'0 0.0 270 / 41018.6 -14.1-14.2
2019-Feb-13 04:00N 50°36' W 096°54'0 0.0 260 / 61018.9 -12.7-12.8
2019-Feb-13 03:00N 50°36' W 096°54'0 0.0 260 / 51018.5 -11.9-12.1
2019-Feb-13 02:00N 50°36' W 096°54'0 0.0 290 / 21018.8 -10.1-10.2
2019-Feb-13 01:00N 50°36' W 096°54'0 0.0 280 / 31019.4 -9.5-9.6
2019-Feb-13 00:00N 50°36' W 096°54'0 0.0 300 / 41019.6 -9.3-9.5
2019-Feb-12 23:00N 50°36' W 096°54'0 0.0 360 / 21019.5 -9.7-10.1
2019-Feb-12 22:00N 50°36' W 096°54'0 0.0 360 / 41019.2 -9.8-10.4
2019-Feb-12 21:00N 50°36' W 096°54'0 0.0 010 / 61019.3 -9.7-10.2
2019-Feb-12 20:00N 50°36' W 096°54'0 0.0 010 / 61019.7 -9.5-10.2
2019-Feb-12 19:00N 50°36' W 096°54'0 0.0 010 / 71020.4 -9.7-10.3
2019-Feb-12 18:00N 50°36' W 096°54'0 0.0 360 / 71020.8 -9.9-10.5
2019-Feb-12 17:00N 50°36' W 096°54'0 0.0 360 / 71021.2 -10.7-10.9
2019-Feb-12 16:00N 50°36' W 096°54'0 0.0 360 / 71021.3 -11.0-11.1
2019-Feb-12 15:00N 50°36' W 096°54'0 0.0 010 / 71021.4 -11.0-11.1
2019-Feb-12 14:00N 50°36' W 096°54'0 0.0 010 / 51021.3 -10.6-10.8
2019-Feb-12 13:00N 50°36' W 096°54'0 0.0 010 / 51021.4 -10.7-10.8
2019-Feb-12 12:00N 50°36' W 096°54'0 0.0 010 / 51021.4 -10.7-10.9
2019-Feb-12 11:00N 50°36' W 096°54'0 0.0 010 / 51021.4 -11.3-11.4
2019-Feb-12 10:00N 50°36' W 096°54'0 0.0 010 / 51021.8 -11.6-11.8
2019-Feb-12 09:00N 50°36' W 096°54'0 0.0 010 / 61022.4 -11.7-11.8
2019-Feb-12 08:00N 50°36' W 096°54'0 0.0 010 / 41022.7 -11.3-11.4
2019-Feb-12 07:00N 50°36' W 096°54'0 0.0 010 / 41023.1 -11.7-11.9
2019-Feb-12 06:00N 50°36' W 096°54'0 0.0 020 / 61023.4 -12.7-12.9
2019-Feb-12 05:00N 50°36' W 096°54'0 0.0 020 / 51023.9 -13.4-13.5
2019-Feb-12 04:00N 50°36' W 096°54'0 0.0 020 / 61024.2 -12.8-13.0
2019-Feb-12 03:00N 50°36' W 096°54'0 0.0 010 / 51024.5 -12.5-12.6
2019-Feb-12 02:00N 50°36' W 096°54'0 0.0 030 / 51025.1 -12.4-12.6
2019-Feb-12 01:00N 50°36' W 096°54'0 0.0 020 / 51025.7 -13.5-14.7
2019-Feb-12 00:00N 50°36' W 096°54'0 0.0 010 / 61025.5 -14.1-16.7
2019-Feb-11 23:00N 50°36' W 096°54'0 0.0 360 / 51025.6 -14.4-17.1
2019-Feb-11 22:00N 50°36' W 096°54'0 0.0 350 / 41025.4 -14.4-17.6
2019-Feb-11 21:00N 50°36' W 096°54'0 0.0 360 / 31025.8 -13.7-17.4
2019-Feb-11 20:00N 50°36' W 096°54'0 0.0 360 / 41026.4 -14.6-18.5
2019-Feb-11 19:00N 50°36' W 096°54'0 0.0 010 / 61027.4 -17.2-20.3
2019-Feb-11 18:00N 50°36' W 096°54'0 0.0 010 / 51028.3 -18.6-22.3
2019-Feb-11 17:00N 50°36' W 096°54'0 0.0 360 / 51029.0 -20.3-24.2
2019-Feb-11 16:00N 50°36' W 096°54'0 0.0 010 / 51029.2 -21.1-25.2
2019-Feb-11 15:00N 50°36' W 096°54'0 0.0 360 / 61029.4 -22.2-25.7
2019-Feb-11 14:00N 50°36' W 096°54'0 0.0 010 / 61029.8 -22.7-25.8
2019-Feb-11 13:00N 50°36' W 096°54'0 0.0 360 / 41030.1 -22.6-25.8
2019-Feb-11 12:00N 50°36' W 096°54'0 0.0 010 / 61030.3 -22.4-25.7
2019-Feb-11 11:00N 50°36' W 096°54'0 0.0 010 / 71030.9 -23.3-26.7
2019-Feb-11 10:00N 50°36' W 096°54'0 0.0 010 / 71031.7 -23.8-27.3
2019-Feb-11 09:00N 50°36' W 096°54'0 0.0 360 / 71032.4 -23.6-27.3
2019-Feb-11 08:00N 50°36' W 096°54'0 0.0 360 / 61032.6 -22.8-26.6
2019-Feb-11 07:00N 50°36' W 096°54'0 0.0 360 / 51033.1 -22.6-26.3
2019-Feb-11 06:00N 50°36' W 096°54'0 0.0 360 / 41033.6 -22.8-26.4
2019-Feb-11 05:00N 50°36' W 096°54'0 0.0 360 / 51033.9 -23.5-26.7
2019-Feb-11 03:00N 50°36' W 096°54'0 0.0 350 / 41033.9 -21.5-25.5
2019-Feb-11 02:00N 50°36' W 096°54'0 0.0 350 / 51034.4 -22.0-25.6
2019-Feb-11 01:00N 50°36' W 096°54'0 0.0 360 / 51034.9 -22.7-26.1
2019-Feb-11 00:00N 50°36' W 096°54'0 0.0 350 / 41035.3 -22.7-25.9
2019-Feb-10 23:00N 50°36' W 096°54'0 0.0 010 / 71035.8 -22.2-25.6
2019-Feb-10 22:00N 50°36' W 096°54'0 0.0 030 / 41036.1 -20.9-24.7
2019-Feb-10 21:00N 50°36' W 096°54'0 0.0 030 / 31036.9 -21.1-25.2
2019-Feb-10 20:00N 50°36' W 096°54'0 0.0 080 / 11038.1 -17.6-24.5
2019-Feb-10 19:00N 50°36' W 096°54'0 0.0 080 / 11038.6 -20.2-25.2
2019-Feb-10 18:00N 50°36' W 096°54'0 0.0 010 / 61039.4 -23.7-27.8
2019-Feb-10 17:00N 50°36' W 096°54'0 0.0 120 / 21039.7 -22.2-26.8
2019-Feb-10 16:00N 50°36' W 096°54'0 0.0 330 / 31040.5 -25.4-29.6
2019-Feb-10 15:00N 50°36' W 096°54'0 0.0 280 / 21041.2 -28.0
2019-Feb-10 14:00N 50°36' W 096°54'0 0.0 240 / 31041.7
2019-Feb-10 13:00N 50°36' W 096°54'0 0.0 320 / 31041.2 -29.0
2019-Feb-10 12:00N 50°36' W 096°54'0 0.0 210 / 21041.9
2019-Feb-10 11:00N 50°36' W 096°54'0 0.0 180 / 31042.4
2019-Feb-10 10:00N 50°36' W 096°54'0 0.0 260 / 21042.1 -27.7
2019-Feb-10 09:00N 50°36' W 096°54'0 0.0 230 / 31042.3 -29.1
2019-Feb-10 08:00N 50°36' W 096°54'0 0.0 200 / 21042.2 -30.0
2019-Feb-10 07:00N 50°36' W 096°54'0 0.0 240 / 21042.5 -27.1
2019-Feb-10 06:00N 50°36' W 096°54'0 0.0 250 / 31042.5 -26.0-28.9
2019-Feb-10 05:00N 50°36' W 096°54'0 0.0 210 / 21043.2 -26.9
2019-Feb-10 04:00N 50°36' W 096°54'0 0.0 270 / 21043.0 -24.9-28.4
2019-Feb-10 03:00N 50°36' W 096°54'0 0.0 210 / 41043.2 -26.1
2019-Feb-10 02:00N 50°36' W 096°54'0 0.0 240 / 41043.3 -24.9-29.5
2019-Feb-10 01:00N 50°36' W 096°54'0 0.0 190 / 61043.9 -24.7-29.5
2019-Feb-10 00:00N 50°36' W 096°54'0 0.0 200 / 41043.7 -23.6-28.8
2019-Feb-09 23:00N 50°36' W 096°54'0 0.0 180 / 81043.8 -22.0-27.8
2019-Feb-09 22:00N 50°36' W 096°54'0 0.0 150 / 71044.1 -21.2-26.2
2019-Feb-09 21:00N 50°36' W 096°54'0 0.0 140 / 81044.4 -20.9-26.1
2019-Feb-09 20:00N 50°36' W 096°54'0 0.0 160 / 31045.2 -19.9-26.3
2019-Feb-09 19:00N 50°36' W 096°54'0 0.0 150 / 51046.3 -21.8-26.9
2019-Feb-09 18:00N 50°36' W 096°54'0 0.0 200 / 41047.5 -22.9-28.2
2019-Feb-09 17:00N 50°36' W 096°54'0 0.0 190 / 41048.1 -25.5
2019-Feb-09 16:00N 50°36' W 096°54'0 0.0 180 / 41048.0 -28.7
2019-Feb-09 15:00N 50°36' W 096°54'0 0.0 170 / 41047.6
2019-Feb-09 14:00N 50°36' W 096°54'0 0.0 180 / 21047.1
2019-Feb-09 13:00N 50°36' W 096°54'0 0.0 220 / 31047.0
2019-Feb-09 12:00N 50°36' W 096°54'0 0.0 200 / 21047.0 -30.0
2019-Feb-09 11:00N 50°36' W 096°54'0 0.0 230 / 31046.6 -29.1
2019-Feb-09 10:00N 50°36' W 096°54'0 0.0 230 / 31046.6 -28.7
2019-Feb-09 09:00N 50°36' W 096°54'0 0.0 230 / 21046.4 -27.7
2019-Feb-09 08:00N 50°36' W 096°54'0 0.0 260 / 51045.5 -26.1-29.3
2019-Feb-09 07:00N 50°36' W 096°54'0 0.0 260 / 51045.0 -25.7-28.8
2019-Feb-09 06:00N 50°36' W 096°54'0 0.0 260 / 51044.3 -25.3-28.3
2019-Feb-09 05:00N 50°36' W 096°54'0 0.0 270 / 31043.8 -24.4-27.7
2019-Feb-09 04:00N 50°36' W 096°54'0 0.0 260 / 61042.9 -23.7-27.3
2019-Feb-09 03:00N 50°36' W 096°54'0 0.0 260 / 71042.2 -23.1-26.9
2019-Feb-09 02:00N 50°36' W 096°54'0 0.0 240 / 51041.7 -22.7-26.8
2019-Feb-09 01:00N 50°36' W 096°54'0 0.0 250 / 41040.8 -21.7-26.4
2019-Feb-09 00:00N 50°36' W 096°54'0 0.0 250 / 41039.8 -20.3-25.5
2019-Feb-08 23:00N 50°36' W 096°54'0 0.0 270 / 41039.0 -18.3-24.7
2019-Feb-08 22:00N 50°36' W 096°54'0 0.0 270 / 41038.2 -17.5-24.1
2019-Feb-08 21:00N 50°36' W 096°54'0 0.0 300 / 71037.4 -18.4-24.1
2019-Feb-08 20:00N 50°36' W 096°54'0 0.0 260 / 71037.0 -18.3-24.0
2019-Feb-08 19:00N 50°36' W 096°54'0 0.0 250 / 81036.3 -18.9-24.3
2019-Feb-08 18:00N 50°36' W 096°54'0 0.0 270 / 81036.1 -19.7-24.8
2019-Feb-08 17:00N 50°36' W 096°54'0 0.0 280 / 71035.5 -20.7-25.4
2019-Feb-08 16:00N 50°36' W 096°54'0 0.0 270 / 91035.1 -22.2-26.3
2019-Feb-08 15:00N 50°36' W 096°54'0 0.0 270 / 71034.5 -23.6-27.4
2019-Feb-08 14:00N 50°36' W 096°54'0 0.0 280 / 61033.7 -24.7-28.4
2019-Feb-08 13:00N 50°36' W 096°54'0 0.0 270 / 71033.2 -25.1-28.8
2019-Feb-08 12:00N 50°36' W 096°54'0 0.0 280 / 81032.8 -26.1-29.8
2019-Feb-08 11:00N 50°36' W 096°54'0 0.0 280 / 61032.2 -27.2
2019-Feb-08 10:00N 50°36' W 096°54'0 0.0 290 / 91031.7 -28.1
2019-Feb-08 09:00N 50°36' W 096°54'0 0.0 290 / 81031.3 -28.2
2019-Feb-08 08:00N 50°36' W 096°54'0 0.0 290 / 81030.8 -27.7
2019-Feb-08 07:00N 50°36' W 096°54'0 0.0 300 / 91030.4 -27.2
2019-Feb-08 06:00N 50°36' W 096°54'0 0.0 310 / 101030.0 -26.7
2019-Feb-08 05:00N 50°36' W 096°54'0 0.0 310 / 91030.0 -26.4
2019-Feb-08 04:00N 50°36' W 096°54'0 0.0 320 / 101029.9 -26.2
2019-Feb-08 03:00N 50°36' W 096°54'0 0.0 320 / 121029.8 -25.8-30.0
2019-Feb-08 02:00N 50°36' W 096°54'0 0.0 310 / 141029.7 -25.1-29.6
2019-Feb-08 01:00N 50°36' W 096°54'0 0.0 320 / 111029.8 -24.1-28.7
2019-Feb-08 00:00N 50°36' W 096°54'0 0.0 300 / 91029.6 -22.7-27.3
2019-Feb-07 23:00N 50°36' W 096°54'0 0.0 320 / 101029.7 -21.8-26.9
2019-Feb-07 22:00N 50°36' W 096°54'0 0.0 330 / 151029.4 -21.6-26.8
2019-Feb-07 21:00N 50°36' W 096°54'0 0.0 330 / 151029.7 -22.0-27.4
2019-Feb-07 20:00N 50°36' W 096°54'0 0.0 340 / 141030.6 -22.0-27.2
2019-Feb-07 19:00N 50°36' W 096°54'0 0.0 330 / 121031.4 -22.5-27.6
2019-Feb-07 18:00N 50°36' W 096°54'0 0.0 330 / 101032.4 -23.0-28.0
2019-Feb-07 17:00N 50°36' W 096°54'0 0.0 340 / 101033.4 -23.7-28.4
2019-Feb-07 16:00N 50°36' W 096°54'0 0.0 330 / 121033.3 -25.2-29.4
2019-Feb-07 15:00N 50°36' W 096°54'0 0.0 330 / 101033.6 -26.5
2019-Feb-07 14:00N 50°36' W 096°54'0 0.0 330 / 101033.1 -26.2-30.0
2019-Feb-07 13:00N 50°36' W 096°54'0 0.0 340 / 111033.1 -25.2-29.0
2019-Feb-07 12:00N 50°36' W 096°54'0 0.0 340 / 101033.2 -24.5-28.3
2019-Feb-07 11:00N 50°36' W 096°54'0 0.0 340 / 111033.4 -24.3-28.1
2019-Feb-07 10:00N 50°36' W 096°54'0 0.0 340 / 111034.0 -24.2-28.1
2019-Feb-07 09:00N 50°36' W 096°54'0 0.0 330 / 111034.3 -24.0-28.1
2019-Feb-07 08:00N 50°36' W 096°54'0 0.0 330 / 101034.3 -23.1-27.3
2019-Feb-07 07:00N 50°36' W 096°54'0 0.0 330 / 101034.6 -23.0-27.3
2019-Feb-07 06:00N 50°36' W 096°54'0 0.0 330 / 101034.2 -23.0-27.2
2019-Feb-07 05:00N 50°36' W 096°54'0 0.0 330 / 111033.7 -23.2-27.4
2019-Feb-07 04:00N 50°36' W 096°54'0 0.0 330 / 101033.5 -22.8-27.0
2019-Feb-07 03:00N 50°36' W 096°54'0 0.0 330 / 111033.3 -22.5-26.8
2019-Feb-07 02:00N 50°36' W 096°54'0 0.0 330 / 121033.0 -22.2-26.7
2019-Feb-07 01:00N 50°36' W 096°54'0 0.0 340 / 131032.4 -21.2-25.9
2019-Feb-07 00:00N 50°36' W 096°54'0 0.0 330 / 141032.4 -20.5-26.0
2019-Feb-06 23:00N 50°36' W 096°54'0 0.0 340 / 141031.1 -19.6-25.2
2019-Feb-06 22:00N 50°36' W 096°54'0 0.0 340 / 141031.4 -18.7-24.6
2019-Feb-06 21:00N 50°36' W 096°54'0 0.0 350 / 141031.0 -17.7-24.0
2019-Feb-06 20:00N 50°36' W 096°54'0 0.0 340 / 131031.2 -17.8-24.1
2019-Feb-06 19:00N 50°36' W 096°54'0 0.0 360 / 111031.2 -18.7-24.0
2019-Feb-06 18:00N 50°36' W 096°54'0 0.0 360 / 141031.0 -19.6-24.3
2019-Feb-06 17:00N 50°36' W 096°54'0 0.0 350 / 161030.9 -20.5-24.8
2019-Feb-06 16:00N 50°36' W 096°54'0 0.0 350 / 141030.9 -21.0-25.0
2019-Feb-06 15:00N 50°36' W 096°54'0 0.0 340 / 131030.3 -22.1-25.4
2019-Feb-06 14:00N 50°36' W 096°54'0 0.0 340 / 111030.5 -21.7-24.9
2019-Feb-06 13:00N 50°36' W 096°54'0 0.0 340 / 111030.0 -21.3-24.4
2019-Feb-06 12:00N 50°36' W 096°54'0 0.0 330 / 81029.9 -21.1-24.1
2019-Feb-06 11:00N 50°36' W 096°54'0 0.0 340 / 91029.5 -21.0-24.0
2019-Feb-06 10:00N 50°36' W 096°54'0 0.0 340 / 71029.6 -20.8-23.7
2019-Feb-06 09:00N 50°36' W 096°54'0 0.0 340 / 91029.7 -20.9-23.7
2019-Feb-06 08:00N 50°36' W 096°54'0 0.0 340 / 71030.0 -20.8-23.6
2019-Feb-06 07:00N 50°36' W 096°54'0 0.0 350 / 91029.7 -20.7-23.4
2019-Feb-06 06:00N 50°36' W 096°54'0 0.0 350 / 71029.9 -20.6-23.5
2019-Feb-06 05:00N 50°36' W 096°54'0 0.0 350 / 91029.6 -20.4-23.3
2019-Feb-06 04:00N 50°36' W 096°54'0 0.0 340 / 61029.9 -21.0-24.1
2019-Feb-06 03:00N 50°36' W 096°54'0 0.0 330 / 41030.0 -21.2-24.6
2019-Feb-06 02:00N 50°36' W 096°54'   350 / 61029.8 -21.4-25.1
Track history (hours):
 
Tides and Currents Weather Stations Pressure Air Temp Water Temp Dewpoint Dewpoint Depression Visibility Wind Speed Wind Dir Waves Ship Positions

Oceanographic research ship Namao (Canada)

Last reported at 2019-Feb-16 02:00 UTC. Time now 2019-Feb-16 03:02 UTC.
Position N 50°36' W 096°54'.

Wind from 240 at 5 knots

Barometer 1026.4 mb
Air temperature -17.4 ° C
Dewpoint -21.3 ° C

Date/timePositionNaut miles runAvg speedWind from/ knotsBaromVisibWave heightAir tempDewpointWater temp
2019-Feb-16 02:00N 50°36' W 096°54'0 0.0 240 / 51026.4 -17.4-21.3
2019-Feb-16 01:00N 50°36' W 096°54'0 0.0 190 / 41026.2 -18.5-21.6
2019-Feb-16 00:00N 50°36' W 096°54'0 0.0 180 / 41025.9 -18.2-21.4
2019-Feb-15 23:00N 50°36' W 096°54'0 0.0 180 / 61025.6 -17.4-21.1
2019-Feb-15 22:00N 50°36' W 096°54'0 0.0 150 / 41025.6 -17.0-20.7
2019-Feb-15 21:00N 50°36' W 096°54'0 0.0 100 / 51025.2 -14.4-19.4
2019-Feb-15 20:00N 50°36' W 096°54'0 0.0 060 / 41025.6 -13.8-19.3
2019-Feb-15 19:00N 50°36' W 096°54'0 0.0 030 / 21025.8 -12.3-19.3
2019-Feb-15 18:00N 50°36' W 096°54'0 0.0 100 / 41026.2 -16.1-21.2
2019-Feb-15 17:00N 50°36' W 096°54'0 0.0 290 / 41026.2 -17.7-22.0
2019-Feb-15 16:00N 50°36' W 096°54'0 0.0 290 / 51025.7 -19.9-23.5
2019-Feb-15 15:00N 50°36' W 096°54'0 0.0 290 / 21025.7 -21.9-25.0
2019-Feb-15 14:00N 50°36' W 096°54'0 0.0 300 / 41025.3 -23.2-25.5
2019-Feb-15 13:00N 50°36' W 096°54'0 0.0 250 / 21024.6 -23.3-25.4
2019-Feb-15 12:00N 50°36' W 096°54'0 0.0 290 / 61024.2 -22.2-24.4
2019-Feb-15 11:00N 50°36' W 096°54'0 0.0 300 / 81023.6 -21.4-23.7
2019-Feb-15 10:00N 50°36' W 096°54'0 0.0 290 / 71023.5 -21.1-23.5
2019-Feb-15 09:00N 50°36' W 096°54'0 0.0 300 / 91022.7 -20.2-22.8
2019-Feb-15 08:00N 50°36' W 096°54'0 0.0 310 / 101022.4 -19.6-22.4
2019-Feb-15 07:00N 50°36' W 096°54'0 0.0 300 / 81021.9 -19.3-22.4
2019-Feb-15 06:00N 50°36' W 096°54'0 0.0 310 / 81021.2 -18.8-21.9
2019-Feb-15 05:00N 50°36' W 096°54'0 0.0 300 / 91021.0 -18.8-22.1
2019-Feb-15 04:00N 50°36' W 096°54'0 0.0 290 / 51020.3 -18.2-21.5
2019-Feb-15 03:00N 50°36' W 096°54'0 0.0 320 / 81019.7 -17.3-20.9
2019-Feb-15 02:00N 50°36' W 096°54'0 0.0 320 / 91019.1 -17.1-20.9
2019-Feb-15 01:00N 50°36' W 096°54'0 0.0 320 / 91018.0 -16.0-20.3
2019-Feb-15 00:00N 50°36' W 096°54'0 0.0 300 / 91017.1 -15.4-19.9
2019-Feb-14 23:00N 50°36' W 096°54'0 0.0 300 / 101016.2 -14.3-19.9
2019-Feb-14 22:00N 50°36' W 096°54'0 0.0 310 / 111015.7 -14.1-19.8
2019-Feb-14 21:00N 50°36' W 096°54'0 0.0 310 / 121015.4 -14.7-20.1
2019-Feb-14 20:00N 50°36' W 096°54'0 0.0 300 / 111015.2 -15.2-20.1
2019-Feb-14 19:00N 50°36' W 096°54'0 0.0 310 / 111014.8 -15.9-20.4
2019-Feb-14 18:00N 50°36' W 096°54'0 0.0 310 / 101014.6 -16.3-20.3
2019-Feb-14 17:00N 50°36' W 096°54'0 0.0 300 / 111014.0 -16.7-20.4
2019-Feb-14 16:00N 50°36' W 096°54'0 0.0 310 / 91013.5 -17.4-20.2
2019-Feb-14 15:00N 50°36' W 096°54'0 0.0 300 / 101013.2 -18.7-21.2
2019-Feb-14 14:00N 50°36' W 096°54'0 0.0 290 / 91012.7 -20.0-22.3
2019-Feb-14 13:00N 50°36' W 096°54'0 0.0 310 / 91012.1 -21.1-23.2
2019-Feb-14 12:00N 50°36' W 096°54'0 0.0 300 / 81011.7 -22.0-24.2
2019-Feb-14 11:00N 50°36' W 096°54'0 0.0 300 / 81010.4 -21.3-23.5
2019-Feb-14 10:00N 50°36' W 096°54'0 0.0 310 / 71010.0 -20.9-22.9
2019-Feb-14 09:00N 50°36' W 096°54'0 0.0 310 / 91009.3 -20.0-22.1
2019-Feb-14 08:00N 50°36' W 096°54'0 0.0 310 / 71009.1 -19.4-20.8
2019-Feb-14 07:00N 50°36' W 096°54'0 0.0 330 / 101008.5 -18.1-19.9
2019-Feb-14 06:00N 50°36' W 096°54'0 0.0 340 / 91008.2 -16.8-18.1
2019-Feb-14 05:00N 50°36' W 096°54'0 0.0 320 / 81007.7 -15.1-16.1
2019-Feb-14 04:00N 50°36' W 096°54'0 0.0 310 / 71007.7 -15.0-15.7
2019-Feb-14 03:00N 50°36' W 096°54'0 0.0 330 / 31007.9 -15.2-15.9
2019-Feb-14 02:00N 50°36' W 096°54'0 0.0 320 / 21008.5 -15.4-16.1
2019-Feb-14 01:00N 50°36' W 096°54'0 0.0 340 / 31009.0 -15.6-16.4
2019-Feb-14 00:00N 50°36' W 096°54'0 0.0 060 / 21009.0 -15.5-16.6
2019-Feb-13 23:00N 50°36' W 096°54'0 0.0 080 / 21009.1 -14.8-16.5
2019-Feb-13 22:00N 50°36' W 096°54'0 0.0 170 / 41009.9 -15.7-18.0
2019-Feb-13 21:00N 50°36' W 096°54'0 0.0 180 / 61010.1 -15.8-18.3
2019-Feb-13 20:00N 50°36' W 096°54'0 0.0 190 / 91010.7 -16.0-18.5
2019-Feb-13 19:00N 50°36' W 096°54'0 0.0 190 / 81011.7 -16.1-18.2
2019-Feb-13 18:00N 50°36' W 096°54'0 0.0 200 / 71012.7 -16.0-18.0
2019-Feb-13 17:00N 50°36' W 096°54'0 0.0 190 / 51013.2 -15.8-17.5
2019-Feb-13 16:00N 50°36' W 096°54'0 0.0 190 / 51014.0 -16.1-17.6
2019-Feb-13 15:00N 50°36' W 096°54'0 0.0 180 / 41014.3 -16.2-17.7
2019-Feb-13 14:00N 50°36' W 096°54'0 0.0 200 / 31014.5 -16.1-17.1
2019-Feb-13 13:00N 50°36' W 096°54'0 0.0 230 / 51015.2 -15.1-15.7
2019-Feb-13 12:00N 50°36' W 096°54'0 0.0 200 / 41015.5 -14.7-15.0
2019-Feb-13 11:00N 50°36' W 096°54'0 0.0 230 / 51015.9 -14.5-14.7
2019-Feb-13 10:00N 50°36' W 096°54'0 0.0 230 / 41016.6 -14.4-14.6
2019-Feb-13 09:00N 50°36' W 096°54'0 0.0 250 / 61017.5 -15.0-15.2
2019-Feb-13 08:00N 50°36' W 096°54'0 0.0 240 / 41017.4 -16.2-16.7
2019-Feb-13 07:00N 50°36' W 096°54'0 0.0 250 / 21017.5 -16.2-16.7
2019-Feb-13 06:00N 50°36' W 096°54'0 0.0 260 / 51018.0 -15.0-15.1
2019-Feb-13 05:00N 50°36' W 096°54'0 0.0 270 / 41018.6 -14.1-14.2
2019-Feb-13 04:00N 50°36' W 096°54'0 0.0 260 / 61018.9 -12.7-12.8
2019-Feb-13 03:00N 50°36' W 096°54'0 0.0 260 / 51018.5 -11.9-12.1
2019-Feb-13 02:00N 50°36' W 096°54'0 0.0 290 / 21018.8 -10.1-10.2
2019-Feb-13 01:00N 50°36' W 096°54'0 0.0 280 / 31019.4 -9.5-9.6
2019-Feb-13 00:00N 50°36' W 096°54'0 0.0 300 / 41019.6 -9.3-9.5
2019-Feb-12 23:00N 50°36' W 096°54'0 0.0 360 / 21019.5 -9.7-10.1
2019-Feb-12 22:00N 50°36' W 096°54'0 0.0 360 / 41019.2 -9.8-10.4
2019-Feb-12 21:00N 50°36' W 096°54'0 0.0 010 / 61019.3 -9.7-10.2
2019-Feb-12 20:00N 50°36' W 096°54'0 0.0 010 / 61019.7 -9.5-10.2
2019-Feb-12 19:00N 50°36' W 096°54'0 0.0 010 / 71020.4 -9.7-10.3
2019-Feb-12 18:00N 50°36' W 096°54'0 0.0 360 / 71020.8 -9.9-10.5
2019-Feb-12 17:00N 50°36' W 096°54'0 0.0 360 / 71021.2 -10.7-10.9
2019-Feb-12 16:00N 50°36' W 096°54'0 0.0 360 / 71021.3 -11.0-11.1
2019-Feb-12 15:00N 50°36' W 096°54'0 0.0 010 / 71021.4 -11.0-11.1
2019-Feb-12 14:00N 50°36' W 096°54'0 0.0 010 / 51021.3 -10.6-10.8
2019-Feb-12 13:00N 50°36' W 096°54'0 0.0 010 / 51021.4 -10.7-10.8
2019-Feb-12 12:00N 50°36' W 096°54'0 0.0 010 / 51021.4 -10.7-10.9
2019-Feb-12 11:00N 50°36' W 096°54'0 0.0 010 / 51021.4 -11.3-11.4
2019-Feb-12 10:00N 50°36' W 096°54'0 0.0 010 / 51021.8 -11.6-11.8
2019-Feb-12 09:00N 50°36' W 096°54'0 0.0 010 / 61022.4 -11.7-11.8
2019-Feb-12 08:00N 50°36' W 096°54'0 0.0 010 / 41022.7 -11.3-11.4
2019-Feb-12 07:00N 50°36' W 096°54'0 0.0 010 / 41023.1 -11.7-11.9
2019-Feb-12 06:00N 50°36' W 096°54'0 0.0 020 / 61023.4 -12.7-12.9
2019-Feb-12 05:00N 50°36' W 096°54'0 0.0 020 / 51023.9 -13.4-13.5
2019-Feb-12 04:00N 50°36' W 096°54'0 0.0 020 / 61024.2 -12.8-13.0
2019-Feb-12 03:00N 50°36' W 096°54'0 0.0 010 / 51024.5 -12.5-12.6
2019-Feb-12 02:00N 50°36' W 096°54'0 0.0 030 / 51025.1 -12.4-12.6
2019-Feb-12 01:00N 50°36' W 096°54'0 0.0 020 / 51025.7 -13.5-14.7
2019-Feb-12 00:00N 50°36' W 096°54'0 0.0 010 / 61025.5 -14.1-16.7
2019-Feb-11 23:00N 50°36' W 096°54'0 0.0 360 / 51025.6 -14.4-17.1
2019-Feb-11 22:00N 50°36' W 096°54'0 0.0 350 / 41025.4 -14.4-17.6
2019-Feb-11 21:00N 50°36' W 096°54'0 0.0 360 / 31025.8 -13.7-17.4
2019-Feb-11 20:00N 50°36' W 096°54'0 0.0 360 / 41026.4 -14.6-18.5
2019-Feb-11 19:00N 50°36' W 096°54'0 0.0 010 / 61027.4 -17.2-20.3
2019-Feb-11 18:00N 50°36' W 096°54'0 0.0 010 / 51028.3 -18.6-22.3
2019-Feb-11 17:00N 50°36' W 096°54'0 0.0 360 / 51029.0 -20.3-24.2
2019-Feb-11 16:00N 50°36' W 096°54'0 0.0 010 / 51029.2 -21.1-25.2
2019-Feb-11 15:00N 50°36' W 096°54'0 0.0 360 / 61029.4 -22.2-25.7
2019-Feb-11 14:00N 50°36' W 096°54'0 0.0 010 / 61029.8 -22.7-25.8
2019-Feb-11 13:00N 50°36' W 096°54'0 0.0 360 / 41030.1 -22.6-25.8
2019-Feb-11 12:00N 50°36' W 096°54'0 0.0 010 / 61030.3 -22.4-25.7
2019-Feb-11 11:00N 50°36' W 096°54'0 0.0 010 / 71030.9 -23.3-26.7
2019-Feb-11 10:00N 50°36' W 096°54'0 0.0 010 / 71031.7 -23.8-27.3
2019-Feb-11 09:00N 50°36' W 096°54'0 0.0 360 / 71032.4 -23.6-27.3
2019-Feb-11 08:00N 50°36' W 096°54'0 0.0 360 / 61032.6 -22.8-26.6
2019-Feb-11 07:00N 50°36' W 096°54'0 0.0 360 / 51033.1 -22.6-26.3
2019-Feb-11 06:00N 50°36' W 096°54'0 0.0 360 / 41033.6 -22.8-26.4
2019-Feb-11 05:00N 50°36' W 096°54'0 0.0 360 / 51033.9 -23.5-26.7
2019-Feb-11 03:00N 50°36' W 096°54'0 0.0 350 / 41033.9 -21.5-25.5
2019-Feb-11 02:00N 50°36' W 096°54'0 0.0 350 / 51034.4 -22.0-25.6
2019-Feb-11 01:00N 50°36' W 096°54'0 0.0 360 / 51034.9 -22.7-26.1
2019-Feb-11 00:00N 50°36' W 096°54'0 0.0 350 / 41035.3 -22.7-25.9
2019-Feb-10 23:00N 50°36' W 096°54'0 0.0 010 / 71035.8 -22.2-25.6
2019-Feb-10 22:00N 50°36' W 096°54'0 0.0 030 / 41036.1 -20.9-24.7
2019-Feb-10 21:00N 50°36' W 096°54'0 0.0 030 / 31036.9 -21.1-25.2
2019-Feb-10 20:00N 50°36' W 096°54'0 0.0 080 / 11038.1 -17.6-24.5
2019-Feb-10 19:00N 50°36' W 096°54'0 0.0 080 / 11038.6 -20.2-25.2
2019-Feb-10 18:00N 50°36' W 096°54'0 0.0 010 / 61039.4 -23.7-27.8
2019-Feb-10 17:00N 50°36' W 096°54'0 0.0 120 / 21039.7 -22.2-26.8
2019-Feb-10 16:00N 50°36' W 096°54'0 0.0 330 / 31040.5 -25.4-29.6
2019-Feb-10 15:00N 50°36' W 096°54'0 0.0 280 / 21041.2 -28.0
2019-Feb-10 14:00N 50°36' W 096°54'0 0.0 240 / 31041.7
2019-Feb-10 13:00N 50°36' W 096°54'0 0.0 320 / 31041.2 -29.0
2019-Feb-10 12:00N 50°36' W 096°54'0 0.0 210 / 21041.9
2019-Feb-10 11:00N 50°36' W 096°54'0 0.0 180 / 31042.4
2019-Feb-10 10:00N 50°36' W 096°54'0 0.0 260 / 21042.1 -27.7
2019-Feb-10 09:00N 50°36' W 096°54'0 0.0 230 / 31042.3 -29.1
2019-Feb-10 08:00N 50°36' W 096°54'0 0.0 200 / 21042.2 -30.0
2019-Feb-10 07:00N 50°36' W 096°54'0 0.0 240 / 21042.5 -27.1
2019-Feb-10 06:00N 50°36' W 096°54'0 0.0 250 / 31042.5 -26.0-28.9
2019-Feb-10 05:00N 50°36' W 096°54'0 0.0 210 / 21043.2 -26.9
2019-Feb-10 04:00N 50°36' W 096°54'0 0.0 270 / 21043.0 -24.9-28.4
2019-Feb-10 03:00N 50°36' W 096°54'0 0.0 210 / 41043.2 -26.1
2019-Feb-10 02:00N 50°36' W 096°54'0 0.0 240 / 41043.3 -24.9-29.5
2019-Feb-10 01:00N 50°36' W 096°54'0 0.0 190 / 61043.9 -24.7-29.5
2019-Feb-10 00:00N 50°36' W 096°54'0 0.0 200 / 41043.7 -23.6-28.8
2019-Feb-09 23:00N 50°36' W 096°54'0 0.0 180 / 81043.8 -22.0-27.8
2019-Feb-09 22:00N 50°36' W 096°54'0 0.0 150 / 71044.1 -21.2-26.2
2019-Feb-09 21:00N 50°36' W 096°54'0 0.0 140 / 81044.4 -20.9-26.1
2019-Feb-09 20:00N 50°36' W 096°54'0 0.0 160 / 31045.2 -19.9-26.3
2019-Feb-09 19:00N 50°36' W 096°54'0 0.0 150 / 51046.3 -21.8-26.9
2019-Feb-09 18:00N 50°36' W 096°54'0 0.0 200 / 41047.5 -22.9-28.2
2019-Feb-09 17:00N 50°36' W 096°54'0 0.0 190 / 41048.1 -25.5
2019-Feb-09 16:00N 50°36' W 096°54'0 0.0 180 / 41048.0 -28.7
2019-Feb-09 15:00N 50°36' W 096°54'0 0.0 170 / 41047.6
2019-Feb-09 14:00N 50°36' W 096°54'0 0.0 180 / 21047.1
2019-Feb-09 13:00N 50°36' W 096°54'0 0.0 220 / 31047.0
2019-Feb-09 12:00N 50°36' W 096°54'0 0.0 200 / 21047.0 -30.0
2019-Feb-09 11:00N 50°36' W 096°54'0 0.0 230 / 31046.6 -29.1
2019-Feb-09 10:00N 50°36' W 096°54'0 0.0 230 / 31046.6 -28.7
2019-Feb-09 09:00N 50°36' W 096°54'0 0.0 230 / 21046.4 -27.7
2019-Feb-09 08:00N 50°36' W 096°54'0 0.0 260 / 51045.5 -26.1-29.3
2019-Feb-09 07:00N 50°36' W 096°54'0 0.0 260 / 51045.0 -25.7-28.8
2019-Feb-09 06:00N 50°36' W 096°54'0 0.0 260 / 51044.3 -25.3-28.3
2019-Feb-09 05:00N 50°36' W 096°54'0 0.0 270 / 31043.8 -24.4-27.7
2019-Feb-09 04:00N 50°36' W 096°54'0 0.0 260 / 61042.9 -23.7-27.3
2019-Feb-09 03:00N 50°36' W 096°54'0 0.0 260 / 71042.2 -23.1-26.9
2019-Feb-09 02:00N 50°36' W 096°54'0 0.0 240 / 51041.7 -22.7-26.8
2019-Feb-09 01:00N 50°36' W 096°54'0 0.0 250 / 41040.8 -21.7-26.4
2019-Feb-09 00:00N 50°36' W 096°54'0 0.0 250 / 41039.8 -20.3-25.5
2019-Feb-08 23:00N 50°36' W 096°54'0 0.0 270 / 41039.0 -18.3-24.7
2019-Feb-08 22:00N 50°36' W 096°54'0 0.0 270 / 41038.2 -17.5-24.1
2019-Feb-08 21:00N 50°36' W 096°54'0 0.0 300 / 71037.4 -18.4-24.1
2019-Feb-08 20:00N 50°36' W 096°54'0 0.0 260 / 71037.0 -18.3-24.0
2019-Feb-08 19:00N 50°36' W 096°54'0 0.0 250 / 81036.3 -18.9-24.3
2019-Feb-08 18:00N 50°36' W 096°54'0 0.0 270 / 81036.1 -19.7-24.8
2019-Feb-08 17:00N 50°36' W 096°54'0 0.0 280 / 71035.5 -20.7-25.4
2019-Feb-08 16:00N 50°36' W 096°54'0 0.0 270 / 91035.1 -22.2-26.3
2019-Feb-08 15:00N 50°36' W 096°54'0 0.0 270 / 71034.5 -23.6-27.4
2019-Feb-08 14:00N 50°36' W 096°54'0 0.0 280 / 61033.7 -24.7-28.4
2019-Feb-08 13:00N 50°36' W 096°54'0 0.0 270 / 71033.2 -25.1-28.8
2019-Feb-08 12:00N 50°36' W 096°54'0 0.0 280 / 81032.8 -26.1-29.8
2019-Feb-08 11:00N 50°36' W 096°54'0 0.0 280 / 61032.2 -27.2
2019-Feb-08 10:00N 50°36' W 096°54'0 0.0 290 / 91031.7 -28.1
2019-Feb-08 09:00N 50°36' W 096°54'0 0.0 290 / 81031.3 -28.2
2019-Feb-08 08:00N 50°36' W 096°54'0 0.0 290 / 81030.8 -27.7
2019-Feb-08 07:00N 50°36' W 096°54'0 0.0 300 / 91030.4 -27.2
2019-Feb-08 06:00N 50°36' W 096°54'0 0.0 310 / 101030.0 -26.7
2019-Feb-08 05:00N 50°36' W 096°54'0 0.0 310 / 91030.0 -26.4
2019-Feb-08 04:00N 50°36' W 096°54'0 0.0 320 / 101029.9 -26.2
2019-Feb-08 03:00N 50°36' W 096°54'0 0.0 320 / 121029.8 -25.8-30.0
2019-Feb-08 02:00N 50°36' W 096°54'0 0.0 310 / 141029.7 -25.1-29.6
2019-Feb-08 01:00N 50°36' W 096°54'0 0.0 320 / 111029.8 -24.1-28.7
2019-Feb-08 00:00N 50°36' W 096°54'0 0.0 300 / 91029.6 -22.7-27.3
2019-Feb-07 23:00N 50°36' W 096°54'0 0.0 320 / 101029.7 -21.8-26.9
2019-Feb-07 22:00N 50°36' W 096°54'0 0.0 330 / 151029.4 -21.6-26.8
2019-Feb-07 21:00N 50°36' W 096°54'0 0.0 330 / 151029.7 -22.0-27.4
2019-Feb-07 20:00N 50°36' W 096°54'0 0.0 340 / 141030.6 -22.0-27.2
2019-Feb-07 19:00N 50°36' W 096°54'0 0.0 330 / 121031.4 -22.5-27.6
2019-Feb-07 18:00N 50°36' W 096°54'0 0.0 330 / 101032.4 -23.0-28.0
2019-Feb-07 17:00N 50°36' W 096°54'0 0.0 340 / 101033.4 -23.7-28.4
2019-Feb-07 16:00N 50°36' W 096°54'0 0.0 330 / 121033.3 -25.2-29.4
2019-Feb-07 15:00N 50°36' W 096°54'0 0.0 330 / 101033.6 -26.5
2019-Feb-07 14:00N 50°36' W 096°54'0 0.0 330 / 101033.1 -26.2-30.0
2019-Feb-07 13:00N 50°36' W 096°54'0 0.0 340 / 111033.1 -25.2-29.0
2019-Feb-07 12:00N 50°36' W 096°54'0 0.0 340 / 101033.2 -24.5-28.3
2019-Feb-07 11:00N 50°36' W 096°54'0 0.0 340 / 111033.4 -24.3-28.1
2019-Feb-07 10:00N 50°36' W 096°54'0 0.0 340 / 111034.0 -24.2-28.1
2019-Feb-07 09:00N 50°36' W 096°54'0 0.0 330 / 111034.3 -24.0-28.1
2019-Feb-07 08:00N 50°36' W 096°54'0 0.0 330 / 101034.3 -23.1-27.3
2019-Feb-07 07:00N 50°36' W 096°54'0 0.0 330 / 101034.6 -23.0-27.3
2019-Feb-07 06:00N 50°36' W 096°54'0 0.0 330 / 101034.2 -23.0-27.2
2019-Feb-07 05:00N 50°36' W 096°54'0 0.0 330 / 111033.7 -23.2-27.4
2019-Feb-07 04:00N 50°36' W 096°54'0 0.0 330 / 101033.5 -22.8-27.0
2019-Feb-07 03:00N 50°36' W 096°54'0 0.0 330 / 111033.3 -22.5-26.8
2019-Feb-07 02:00N 50°36' W 096°54'0 0.0 330 / 121033.0 -22.2-26.7
2019-Feb-07 01:00N 50°36' W 096°54'0 0.0 340 / 131032.4 -21.2-25.9
2019-Feb-07 00:00N 50°36' W 096°54'0 0.0 330 / 141032.4 -20.5-26.0
2019-Feb-06 23:00N 50°36' W 096°54'0 0.0 340 / 141031.1 -19.6-25.2
2019-Feb-06 22:00N 50°36' W 096°54'0 0.0 340 / 141031.4 -18.7-24.6
2019-Feb-06 21:00N 50°36' W 096°54'0 0.0 350 / 141031.0 -17.7-24.0
2019-Feb-06 20:00N 50°36' W 096°54'0 0.0 340 / 131031.2 -17.8-24.1
2019-Feb-06 19:00N 50°36' W 096°54'0 0.0 360 / 111031.2 -18.7-24.0
2019-Feb-06 18:00N 50°36' W 096°54'0 0.0 360 / 141031.0 -19.6-24.3
2019-Feb-06 17:00N 50°36' W 096°54'0 0.0 350 / 161030.9 -20.5-24.8
2019-Feb-06 16:00N 50°36' W 096°54'0 0.0 350 / 141030.9 -21.0-25.0
2019-Feb-06 15:00N 50°36' W 096°54'0 0.0 340 / 131030.3 -22.1-25.4
2019-Feb-06 14:00N 50°36' W 096°54'0 0.0 340 / 111030.5 -21.7-24.9
2019-Feb-06 13:00N 50°36' W 096°54'0 0.0 340 / 111030.0 -21.3-24.4
2019-Feb-06 12:00N 50°36' W 096°54'0 0.0 330 / 81029.9 -21.1-24.1
2019-Feb-06 11:00N 50°36' W 096°54'0 0.0 340 / 91029.5 -21.0-24.0
2019-Feb-06 10:00N 50°36' W 096°54'0 0.0 340 / 71029.6 -20.8-23.7
2019-Feb-06 09:00N 50°36' W 096°54'0 0.0 340 / 91029.7 -20.9-23.7
2019-Feb-06 08:00N 50°36' W 096°54'0 0.0 340 / 71030.0 -20.8-23.6
2019-Feb-06 07:00N 50°36' W 096°54'0 0.0 350 / 91029.7 -20.7-23.4
2019-Feb-06 06:00N 50°36' W 096°54'0 0.0 350 / 71029.9 -20.6-23.5
2019-Feb-06 05:00N 50°36' W 096°54'0 0.0 350 / 91029.6 -20.4-23.3
2019-Feb-06 04:00N 50°36' W 096°54'0 0.0 340 / 61029.9 -21.0-24.1
2019-Feb-06 03:00N 50°36' W 096°54'0 0.0 330 / 41030.0 -21.2-24.6
2019-Feb-06 02:00N 50°36' W 096°54'   350 / 61029.8 -21.4-25.1

Dump ship's entire track history